createdAt,value
2022-10-05T00:01:28.391Z,6.90
2022-10-05T00:04:01.127Z,7.70
2022-10-05T00:06:30.552Z,7.28
2022-10-05T00:08:59.001Z,8.05
2022-10-05T00:11:28.632Z,6.85
2022-10-05T00:13:56.866Z,6.47
2022-10-05T00:16:25.155Z,6.30
2022-10-05T00:18:54.825Z,6.65
2022-10-05T00:21:26.786Z,7.80
2022-10-05T00:23:58.166Z,7.13
2022-10-05T00:26:33.236Z,7.22
2022-10-05T00:29:03.357Z,7.05
2022-10-05T00:31:33.936Z,7.32
2022-10-05T00:34:02.636Z,8.68
2022-10-05T00:36:30.856Z,7.82
2022-10-05T00:39:01.567Z,7.63
2022-10-05T00:41:40.176Z,7.45
2022-10-05T00:44:26.207Z,7.50
2022-10-05T00:46:58.391Z,7.55
2022-10-05T00:49:43.639Z,7.55
2022-10-05T00:52:22.076Z,7.35
2022-10-05T00:54:59.827Z,8.23
2022-10-05T00:57:42.119Z,7.45
2022-10-05T01:00:13.062Z,7.40
2022-10-05T01:02:53.203Z,7.70
2022-10-05T01:05:35.485Z,7.70
2022-10-05T01:08:14.533Z,7.88
2022-10-05T01:10:48.690Z,7.97
2022-10-05T01:13:31.544Z,8.90
2022-10-05T01:16:08.351Z,9.10
2022-10-05T01:18:45.262Z,8.48
2022-10-05T01:21:19.505Z,8.13
2022-10-05T01:24:27.611Z,7.20
2022-10-05T01:27:22.898Z,6.97
2022-10-05T01:30:04.007Z,7.30
2022-10-05T01:32:37.935Z,5.70
2022-10-05T01:35:15.791Z,5.90
2022-10-05T01:37:56.703Z,6.57
2022-10-05T01:40:33.834Z,6.80
2022-10-05T01:43:12.634Z,6.55
2022-10-05T01:45:54.053Z,7.32
2022-10-05T01:48:33.114Z,6.70
2022-10-05T01:51:11.880Z,7.32
2022-10-05T01:53:51.716Z,8.02
2022-10-05T01:56:27.017Z,6.70
2022-10-05T01:59:03.114Z,8.68
2022-10-05T02:01:40.254Z,7.25
2022-10-05T02:04:25.576Z,7.72
2022-10-05T02:07:08.155Z,7.55
2022-10-05T02:09:44.460Z,7.97
2022-10-05T02:12:16.787Z,6.97
2022-10-05T02:15:04.143Z,7.35
2022-10-05T02:17:39.180Z,6.50
2022-10-05T02:20:12.570Z,5.45
2022-10-05T02:22:46.232Z,6.70
2022-10-05T02:25:17.739Z,6.57
2022-10-05T02:27:54.930Z,6.22
2022-10-05T02:30:23.603Z,7.18
2022-10-05T02:32:59.350Z,6.75
2022-10-05T02:35:28.539Z,7.03
2022-10-05T02:38:08.171Z,6.88
2022-10-05T02:40:48.187Z,7.53
2022-10-05T02:43:25.022Z,7.40
2022-10-05T02:46:00.459Z,6.90
2022-10-05T02:48:41.271Z,6.35
2022-10-05T02:51:19.285Z,7.10
2022-10-05T02:54:07.922Z,6.40
2022-10-05T02:56:46.077Z,6.80
2022-10-05T02:59:21.307Z,6.50
2022-10-05T03:01:53.090Z,6.82
2022-10-05T03:04:34.205Z,6.43
2022-10-05T03:07:13.334Z,6.82
2022-10-05T03:09:46.470Z,6.25
2022-10-05T03:12:32.580Z,7.03
2022-10-05T03:15:12.231Z,6.40
2022-10-05T03:17:50.435Z,6.30
2022-10-05T03:20:31.936Z,6.97
2022-10-05T03:23:02.894Z,6.80
2022-10-05T03:26:06.162Z,6.90
2022-10-05T03:28:41.551Z,6.60
2022-10-05T03:31:19.372Z,5.47
2022-10-05T03:33:54.296Z,7.38
2022-10-05T03:36:39.579Z,5.57
2022-10-05T03:39:14.406Z,5.53
2022-10-05T03:41:51.661Z,5.05
2022-10-05T03:44:36.791Z,5.32
2022-10-05T03:47:12.757Z,6.20
2022-10-05T03:49:51.817Z,4.68
2022-10-05T03:52:27.259Z,6.18
2022-10-05T03:55:02.569Z,5.82
2022-10-05T03:57:34.987Z,5.28
2022-10-05T04:00:08.235Z,5.55
2022-10-05T04:02:49.298Z,5.60
2022-10-05T04:05:21.780Z,5.28
2022-10-05T04:07:57.700Z,5.47
2022-10-05T04:10:30.237Z,5.90
2022-10-05T04:13:04.595Z,5.60
2022-10-05T04:15:39.043Z,5.88
2022-10-05T04:18:13.413Z,5.88
2022-10-05T04:20:45.900Z,6.30
2022-10-05T04:23:45.202Z,6.18
2022-10-05T04:26:20.077Z,5.70
2022-10-05T04:28:56.658Z,5.53
2022-10-05T04:31:51.347Z,5.60
2022-10-05T04:34:40.277Z,5.25
2022-10-05T04:37:15.000Z,6.05
2022-10-05T04:39:52.194Z,7.05
2022-10-05T04:42:29.926Z,6.20
2022-10-05T04:45:12.845Z,7.53
2022-10-05T04:48:22.959Z,8.05
2022-10-05T04:51:05.653Z,6.93
2022-10-05T04:53:41.015Z,6.80
2022-10-05T04:56:13.995Z,7.25
2022-10-05T04:58:58.051Z,5.60
2022-10-05T05:01:48.440Z,6.25
2022-10-05T05:04:36.679Z,5.90
2022-10-05T05:07:17.464Z,5.15
2022-10-05T05:10:08.252Z,6.07
2022-10-05T05:12:48.567Z,5.63
2022-10-05T05:15:32.318Z,5.43
2022-10-05T05:18:35.876Z,6.10
2022-10-05T05:21:16.669Z,6.30
2022-10-05T05:23:51.868Z,6.15
2022-10-05T05:26:30.362Z,6.50
2022-10-05T05:29:24.668Z,6.68
2022-10-05T05:32:00.432Z,6.35
2022-10-05T05:34:41.975Z,7.38
2022-10-05T05:37:20.790Z,5.75
2022-10-05T05:40:00.360Z,6.10
2022-10-05T05:42:38.204Z,7.10
2022-10-05T05:45:17.517Z,6.40
2022-10-05T05:47:52.058Z,5.95
2022-10-05T05:50:44.193Z,5.35
2022-10-05T05:53:19.869Z,6.05
2022-10-05T05:55:51.167Z,6.00
2022-10-05T05:58:24.644Z,5.68
2022-10-05T06:01:00.854Z,5.75
2022-10-05T06:03:35.183Z,6.03
2022-10-05T06:06:07.959Z,5.60
2022-10-05T06:08:42.447Z,6.07
2022-10-05T06:11:46.657Z,4.95
2022-10-05T06:14:24.916Z,5.95
2022-10-05T06:17:01.578Z,4.82
2022-10-05T06:19:33.391Z,6.72
2022-10-05T06:22:08.016Z,5.93
2022-10-05T06:24:43.179Z,5.70
2022-10-05T06:27:25.935Z,5.65
2022-10-05T06:30:06.368Z,5.75
2022-10-05T06:33:01.453Z,4.70
2022-10-05T06:35:43.817Z,5.30
2022-10-05T06:38:33.636Z,6.40
2022-10-05T06:41:15.295Z,6.53
2022-10-05T06:43:58.134Z,6.03
2022-10-05T06:46:52.881Z,5.85
2022-10-05T06:50:09.332Z,5.50
2022-10-05T06:53:00.694Z,5.00
2022-10-05T06:55:46.888Z,5.55
2022-10-05T06:58:26.516Z,5.50
2022-10-05T07:01:01.408Z,5.30
2022-10-05T07:03:42.523Z,4.97
2022-10-05T07:06:18.125Z,4.80
2022-10-05T07:09:14.350Z,4.75
2022-10-05T07:12:09.030Z,4.53
2022-10-05T07:15:03.827Z,4.10
2022-10-05T07:17:45.710Z,4.90
2022-10-05T07:20:49.359Z,4.47
2022-10-05T07:23:43.206Z,6.53
2022-10-05T07:26:18.046Z,4.97
2022-10-05T07:28:52.169Z,5.20
2022-10-05T07:31:29.820Z,4.80
2022-10-05T07:34:06.987Z,4.88
2022-10-05T07:36:59.122Z,5.13
2022-10-05T07:39:59.271Z,5.70
2022-10-05T07:42:46.043Z,4.95
2022-10-05T07:45:27.371Z,4.68
2022-10-05T07:47:58.175Z,4.88
2022-10-05T07:50:35.093Z,4.70
2022-10-05T07:53:07.890Z,3.75
2022-10-05T07:55:45.234Z,4.65
2022-10-05T07:58:19.540Z,5.18
2022-10-05T08:01:05.540Z,4.30
2022-10-05T08:03:48.693Z,4.25
2022-10-05T08:06:44.648Z,4.50
2022-10-05T08:09:28.576Z,4.38
2022-10-05T08:12:11.572Z,3.95
2022-10-05T08:14:47.574Z,4.10
2022-10-05T08:17:25.582Z,4.65
2022-10-05T08:20:03.476Z,4.50
2022-10-05T08:22:39.608Z,4.35
2022-10-05T08:25:15.473Z,4.85
2022-10-05T08:27:54.753Z,4.10
2022-10-05T08:30:23.159Z,3.88
2022-10-05T08:32:56.491Z,4.70
2022-10-05T08:35:34.101Z,4.38
2022-10-05T08:38:06.015Z,4.40
2022-10-05T08:41:04.089Z,4.20
2022-10-05T08:44:00.885Z,3.55
2022-10-05T08:46:51.626Z,4.25
2022-10-05T08:49:53.675Z,4.68
2022-10-05T08:52:29.162Z,5.00
2022-10-05T08:55:35.145Z,4.38
2022-10-05T08:58:37.363Z,4.10
2022-10-05T09:01:17.141Z,5.30
2022-10-05T09:04:14.880Z,5.40
2022-10-05T09:07:09.604Z,5.45
2022-10-05T09:10:01.857Z,4.75
2022-10-05T09:13:06.031Z,4.30
2022-10-05T09:16:00.832Z,3.58
2022-10-05T09:18:59.983Z,3.97
2022-10-05T09:21:41.956Z,4.47
2022-10-05T09:24:28.185Z,4.22
2022-10-05T09:27:05.105Z,4.78
2022-10-05T09:30:00.439Z,4.05
2022-10-05T09:32:55.511Z,4.60
2022-10-05T09:35:47.857Z,4.20
2022-10-05T09:38:34.642Z,3.35
2022-10-05T09:41:41.673Z,3.42
2022-10-05T09:44:42.136Z,3.83
2022-10-05T09:47:45.751Z,3.38
2022-10-05T09:50:53.323Z,4.10
2022-10-05T09:53:44.576Z,3.72
2022-10-05T09:56:29.429Z,3.25
2022-10-05T09:59:51.658Z,3.60
2022-10-05T10:02:59.723Z,3.45
2022-10-05T10:05:57.178Z,2.95
2022-10-05T10:08:42.067Z,4.35
2022-10-05T10:11:26.174Z,4.00
2022-10-05T10:14:25.805Z,3.20
2022-10-05T10:17:11.093Z,3.10
2022-10-05T10:20:14.664Z,3.47
2022-10-05T10:23:09.696Z,2.78
2022-10-05T10:26:09.023Z,3.00
2022-10-05T10:28:56.040Z,2.83
2022-10-05T10:31:58.155Z,2.83
2022-10-05T10:35:04.232Z,2.60
2022-10-05T10:38:09.957Z,2.80
2022-10-05T10:40:56.092Z,3.00
2022-10-05T10:43:51.581Z,2.70
2022-10-05T10:46:36.687Z,2.53
2022-10-05T10:49:26.680Z,2.53
2022-10-05T10:52:06.713Z,2.25
2022-10-05T10:55:04.966Z,2.85
2022-10-05T10:57:46.395Z,2.70
2022-10-05T11:00:41.963Z,2.20
2022-10-05T11:03:47.121Z,2.50
2022-10-05T11:06:48.273Z,2.80
2022-10-05T11:09:35.760Z,2.50
2022-10-05T11:12:41.770Z,3.10
2022-10-05T11:15:33.790Z,2.25
2022-10-05T11:18:16.804Z,3.70
2022-10-05T11:21:14.758Z,3.35
2022-10-05T11:24:24.638Z,2.50
2022-10-05T11:30:43.686Z,2.70
2022-10-05T11:33:43.637Z,2.83
2022-10-05T11:36:42.895Z,3.13
2022-10-05T11:43:07.940Z,3.00
2022-10-05T11:45:56.265Z,2.93
2022-10-05T11:48:40.176Z,3.63
2022-10-05T12:08:51.422Z,3.10
2022-10-05T12:11:47.938Z,2.90
2022-10-05T12:14:24.324Z,3.27
2022-10-05T12:16:59.395Z,3.40
2022-10-05T12:19:34.067Z,2.87
2022-10-05T12:22:11.146Z,3.53
2022-10-05T12:25:01.907Z,2.73
2022-10-05T12:27:35.394Z,3.73
2022-10-05T12:30:13.615Z,3.77
2022-10-05T12:36:16.256Z,3.87
2022-10-05T12:38:51.980Z,4.17
2022-10-05T12:41:26.587Z,4.37
2022-10-05T12:44:14.867Z,3.93
2022-10-05T12:46:52.825Z,3.93
2022-10-05T12:49:58.734Z,4.00
2022-10-05T12:52:50.805Z,4.27
2022-10-05T12:55:27.441Z,3.63
2022-10-05T12:58:06.442Z,3.97
2022-10-05T13:00:39.680Z,4.10
2022-10-05T13:03:21.135Z,3.80
2022-10-05T13:06:02.674Z,3.97
2022-10-05T13:08:39.843Z,4.23
2022-10-05T13:11:16.929Z,3.90
2022-10-05T13:13:54.166Z,4.20
2022-10-05T13:16:30.619Z,3.90
2022-10-05T13:19:13.316Z,4.20
2022-10-05T13:25:52.026Z,3.87
2022-10-05T13:28:32.904Z,3.83
2022-10-05T13:31:29.966Z,4.33
2022-10-05T13:34:10.785Z,3.73
2022-10-05T13:36:49.664Z,3.43
2022-10-05T13:39:56.283Z,3.70
2022-10-05T13:42:34.112Z,3.80
2022-10-05T13:45:13.530Z,4.10
2022-10-05T13:47:57.212Z,3.67
2022-10-05T13:50:33.410Z,3.60
2022-10-05T13:53:16.956Z,4.30
2022-10-05T13:56:21.774Z,3.10
2022-10-05T13:58:56.846Z,3.40
2022-10-05T14:01:36.048Z,3.90
2022-10-05T14:04:17.253Z,3.67
2022-10-05T14:06:46.609Z,3.50
2022-10-05T14:09:29.130Z,3.87
2022-10-05T14:12:13.470Z,3.67
2022-10-05T14:14:49.197Z,3.40
2022-10-05T14:17:41.378Z,3.47
2022-10-05T14:20:23.578Z,3.30
2022-10-05T14:22:57.501Z,3.27
2022-10-05T14:25:25.868Z,3.70
2022-10-05T14:28:01.081Z,3.30
2022-10-05T14:30:31.032Z,3.87
2022-10-05T14:33:16.656Z,3.27
2022-10-05T14:35:49.339Z,4.10
2022-10-05T14:38:20.637Z,3.60
2022-10-05T14:41:04.296Z,3.40
2022-10-05T14:43:33.676Z,3.80
2022-10-05T14:46:05.542Z,3.53
2022-10-05T14:48:43.920Z,3.93
2022-10-05T14:51:25.316Z,3.50
2022-10-05T14:53:59.294Z,3.60
2022-10-05T14:56:44.387Z,2.90
2022-10-05T14:59:36.381Z,3.60
2022-10-05T15:02:24.283Z,3.57
2022-10-05T15:05:01.738Z,3.30
2022-10-05T15:07:36.089Z,2.80
2022-10-05T15:10:29.726Z,3.63
2022-10-05T15:13:45.062Z,3.50
2022-10-05T15:16:20.245Z,3.47
2022-10-05T15:18:58.433Z,3.50
2022-10-05T15:21:47.491Z,3.23
2022-10-05T15:24:48.560Z,3.50
2022-10-05T15:28:14.112Z,3.73
2022-10-05T15:30:48.471Z,3.50
2022-10-05T15:33:27.743Z,3.80
2022-10-05T15:36:20.215Z,3.33
2022-10-05T15:39:06.632Z,4.00
2022-10-05T15:42:03.257Z,3.40
2022-10-05T15:44:52.293Z,3.00
2022-10-05T15:47:54.110Z,2.80
2022-10-05T15:50:57.133Z,3.90
2022-10-05T15:53:35.798Z,1.73
2022-10-05T15:56:11.039Z,1.90
2022-10-05T15:58:53.691Z,1.30
2022-10-05T16:01:30.071Z,1.70
2022-10-05T16:04:05.941Z,1.37
2022-10-05T16:06:57.568Z,1.30
2022-10-05T16:09:40.221Z,1.40
2022-10-05T16:12:27.051Z,1.80
2022-10-05T16:15:05.651Z,1.17
2022-10-05T16:17:48.182Z,1.73
2022-10-05T16:20:28.901Z,1.70
2022-10-05T16:23:03.223Z,1.30
2022-10-05T16:25:42.294Z,1.70
2022-10-05T16:28:28.659Z,1.67
2022-10-05T16:31:03.218Z,1.77
2022-10-05T16:33:46.655Z,1.33
2022-10-05T16:36:24.179Z,1.17
2022-10-05T16:39:04.570Z,1.13
2022-10-05T16:41:47.917Z,1.40
2022-10-05T16:44:24.609Z,1.20
2022-10-05T16:47:00.566Z,1.70
2022-10-05T16:49:40.228Z,1.23
2022-10-05T16:52:13.268Z,1.03
2022-10-05T16:54:50.115Z,1.10
2022-10-05T16:57:23.721Z,1.23
2022-10-05T17:00:13.416Z,1.57
2022-10-05T17:02:58.777Z,1.90
2022-10-05T17:05:58.947Z,1.60
2022-10-05T17:08:45.866Z,1.70
2022-10-05T17:11:26.246Z,1.73
2022-10-05T17:14:20.250Z,1.57
2022-10-05T17:17:07.654Z,1.30
2022-10-05T17:19:50.587Z,1.47
2022-10-05T17:22:27.669Z,1.70
2022-10-05T17:25:03.291Z,1.57
2022-10-05T17:27:50.987Z,1.60
2022-10-05T17:30:48.666Z,1.70
2022-10-05T17:33:27.579Z,1.87
2022-10-05T17:36:12.858Z,2.03
2022-10-05T17:38:51.537Z,1.70
2022-10-05T17:41:25.338Z,1.48
2022-10-05T17:44:21.599Z,1.95
2022-10-05T17:46:52.810Z,1.50
2022-10-05T17:50:13.293Z,1.50
2022-10-05T17:53:02.386Z,2.00
2022-10-05T17:56:02.273Z,2.20
2022-10-05T17:59:01.228Z,1.73
2022-10-05T18:01:32.540Z,1.55
2022-10-05T18:04:30.486Z,1.67
2022-10-05T18:07:04.943Z,1.70
2022-10-05T18:09:38.336Z,1.98
2022-10-05T18:12:42.452Z,2.00
2022-10-05T18:15:45.952Z,2.83
2022-10-05T18:18:59.274Z,2.10
2022-10-05T18:21:40.608Z,1.98
2022-10-05T18:24:45.913Z,2.22
2022-10-05T18:27:34.337Z,2.00
2022-10-05T18:30:15.391Z,2.55
2022-10-05T18:33:17.041Z,2.08
2022-10-05T18:35:53.469Z,2.58
2022-10-05T18:38:34.086Z,1.98
2022-10-05T18:41:10.189Z,2.00
2022-10-05T18:43:46.186Z,2.25
2022-10-05T18:46:28.903Z,2.50
2022-10-05T18:49:15.567Z,2.20
2022-10-05T18:51:56.009Z,2.42
2022-10-05T18:54:45.519Z,2.38
2022-10-05T18:57:44.981Z,2.20
2022-10-05T19:00:17.416Z,2.40
2022-10-05T19:02:50.773Z,2.33
2022-10-05T19:05:48.496Z,2.42
2022-10-05T19:08:34.341Z,2.47
2022-10-05T19:11:13.534Z,2.47
2022-10-05T19:14:11.555Z,2.70
2022-10-05T19:16:55.769Z,2.88
2022-10-05T19:19:43.847Z,2.40
2022-10-05T19:22:20.961Z,2.35
2022-10-05T19:25:05.391Z,2.28
2022-10-05T19:27:40.755Z,2.20
2022-10-05T19:30:20.448Z,2.42
2022-10-05T19:33:13.122Z,2.53
2022-10-05T19:35:58.452Z,2.58
2022-10-05T19:38:33.568Z,2.60
2022-10-05T19:41:13.232Z,2.50
2022-10-05T19:43:59.346Z,3.17
2022-10-05T19:46:43.406Z,2.30
2022-10-05T19:49:11.991Z,2.55
2022-10-05T19:51:50.935Z,1.90
2022-10-05T19:54:25.890Z,3.10
2022-10-05T19:56:55.167Z,2.85
2022-10-05T19:59:27.776Z,2.83
2022-10-05T20:01:59.113Z,2.75
2022-10-05T20:04:35.454Z,2.90
2022-10-05T20:07:04.219Z,2.10
2022-10-05T20:09:51.550Z,2.58
2022-10-05T20:12:22.769Z,2.47
2022-10-05T20:15:26.744Z,2.95
2022-10-05T20:18:14.657Z,2.58
2022-10-05T20:20:47.112Z,2.55
2022-10-05T20:23:25.096Z,2.53
2022-10-05T20:26:11.074Z,3.40
2022-10-05T20:28:39.568Z,2.42
2022-10-05T20:31:08.385Z,2.42
2022-10-05T20:33:40.327Z,2.20
2022-10-05T20:36:08.922Z,2.65
2022-10-05T20:38:40.806Z,2.28
2022-10-05T20:41:09.400Z,2.47
2022-10-05T20:43:39.332Z,2.53
2022-10-05T20:46:08.081Z,2.50
2022-10-05T20:48:37.607Z,2.67
2022-10-05T20:51:06.065Z,2.88
2022-10-05T20:53:34.654Z,2.38
2022-10-05T20:56:04.440Z,2.83
2022-10-05T20:58:32.493Z,2.30
2022-10-05T21:01:19.873Z,2.60
2022-10-05T21:03:50.564Z,2.85
2022-10-05T21:06:19.080Z,2.55
2022-10-05T21:08:47.283Z,3.20
2022-10-05T21:11:15.429Z,2.85
2022-10-05T21:13:45.296Z,2.78
2022-10-05T21:16:15.525Z,2.60
2022-10-05T21:18:46.877Z,2.60
2022-10-05T21:21:17.278Z,2.80
2022-10-05T21:23:45.606Z,2.63
2022-10-05T21:26:14.446Z,3.10
2022-10-05T21:28:42.688Z,2.88
2022-10-05T21:31:11.251Z,2.00
2022-10-05T21:33:39.601Z,2.30
2022-10-05T21:36:08.103Z,2.83
2022-10-05T21:38:38.093Z,2.40
2022-10-05T21:41:07.691Z,2.85
2022-10-05T21:43:35.943Z,2.83
2022-10-05T21:46:04.359Z,2.47
2022-10-05T21:48:34.911Z,3.00
2022-10-05T21:51:03.700Z,2.58
2022-10-05T21:53:34.916Z,2.47
2022-10-05T21:56:10.196Z,2.35
2022-10-05T21:58:38.682Z,2.35
2022-10-05T22:01:08.044Z,2.55
2022-10-05T22:03:36.292Z,2.00
2022-10-05T22:06:04.875Z,2.33
2022-10-05T22:08:34.934Z,2.65
2022-10-05T22:11:11.161Z,2.38
2022-10-05T22:13:46.912Z,2.40
2022-10-05T22:16:16.810Z,2.38
2022-10-05T22:18:45.567Z,1.80
2022-10-05T22:21:15.206Z,2.08
2022-10-05T22:23:44.795Z,1.98
2022-10-05T22:26:17.553Z,1.50
2022-10-05T22:28:46.850Z,1.95
2022-10-05T22:31:15.858Z,2.22
2022-10-05T22:33:43.914Z,2.13
2022-10-05T22:36:12.139Z,2.53
2022-10-05T22:38:44.776Z,1.98
2022-10-05T22:41:16.493Z,2.25
2022-10-05T22:43:44.750Z,2.20
2022-10-05T22:46:13.931Z,1.90
2022-10-05T22:48:42.689Z,1.90
2022-10-05T22:51:10.917Z,2.35
2022-10-05T22:53:39.290Z,2.08
2022-10-05T22:56:08.980Z,2.20
2022-10-05T22:58:39.175Z,2.45
2022-10-05T23:01:09.443Z,1.90
2022-10-05T23:03:37.922Z,2.08
2022-10-05T23:06:08.240Z,1.90
2022-10-05T23:08:38.047Z,1.77
2022-10-05T23:11:07.458Z,2.13
2022-10-05T23:13:35.796Z,2.13
2022-10-05T23:16:09.690Z,2.25
2022-10-05T23:18:38.288Z,2.00
2022-10-05T23:21:08.541Z,2.80
2022-10-05T23:23:37.652Z,2.08
2022-10-05T23:26:07.866Z,2.55
2022-10-05T23:28:36.110Z,2.10
2022-10-05T23:31:06.568Z,2.60
2022-10-05T23:33:36.706Z,2.15
2022-10-05T23:36:06.818Z,2.75
2022-10-05T23:38:36.067Z,2.35
2022-10-05T23:41:05.012Z,3.28
2022-10-05T23:43:33.893Z,2.00
2022-10-05T23:46:03.061Z,2.20
2022-10-05T23:48:31.636Z,2.40
2022-10-05T23:51:01.688Z,2.67
2022-10-05T23:53:29.864Z,2.55
2022-10-05T23:55:58.102Z,2.70
2022-10-05T23:58:26.731Z,2.20
